sensor_id;sensor_type;location;lat;lon;timestamp;P1;durP1;ratioP1;P2;durP2;ratioP2
57891;SDS011;43708;48.828;9.166;2023-02-22T00:00:55;0.90;;;0.80;;
57891;SDS011;43708;48.828;9.166;2023-02-22T00:03:26;1.63;;;0.93;;
57891;SDS011;43708;48.828;9.166;2023-02-22T00:05:59;1.15;;;1.00;;
57891;SDS011;43708;48.828;9.166;2023-02-22T00:08:33;1.05;;;0.70;;
57891;SDS011;43708;48.828;9.166;2023-02-22T00:11:00;1.42;;;1.00;;
57891;SDS011;43708;48.828;9.166;2023-02-22T00:13:32;0.98;;;0.70;;
57891;SDS011;43708;48.828;9.166;2023-02-22T00:15:58;1.10;;;0.65;;
57891;SDS011;43708;48.828;9.166;2023-02-22T00:18:24;0.95;;;0.70;;
57891;SDS011;43708;48.828;9.166;2023-02-22T00:20:57;1.45;;;0.80;;
57891;SDS011;43708;48.828;9.166;2023-02-22T00:23:24;1.33;;;0.88;;
57891;SDS011;43708;48.828;9.166;2023-02-22T00:25:52;1.23;;;0.70;;
57891;SDS011;43708;48.828;9.166;2023-02-22T00:28:19;0.70;;;0.70;;
57891;SDS011;43708;48.828;9.166;2023-02-22T00:30:48;1.58;;;0.70;;
57891;SDS011;43708;48.828;9.166;2023-02-22T00:33:15;1.02;;;0.80;;
57891;SDS011;43708;48.828;9.166;2023-02-22T00:35:41;1.23;;;0.90;;
57891;SDS011;43708;48.828;9.166;2023-02-22T00:38:10;1.20;;;1.02;;
57891;SDS011;43708;48.828;9.166;2023-02-22T00:40:36;1.33;;;0.90;;
57891;SDS011;43708;48.828;9.166;2023-02-22T00:43:03;3.10;;;1.00;;
57891;SDS011;43708;48.828;9.166;2023-02-22T00:45:30;1.38;;;0.88;;
57891;SDS011;43708;48.828;9.166;2023-02-22T00:47:57;1.30;;;0.82;;
57891;SDS011;43708;48.828;9.166;2023-02-22T00:50:24;1.08;;;0.88;;
57891;SDS011;43708;48.828;9.166;2023-02-22T00:52:52;1.27;;;1.00;;
57891;SDS011;43708;48.828;9.166;2023-02-22T00:55:24;1.00;;;0.88;;
57891;SDS011;43708;48.828;9.166;2023-02-22T00:57:52;1.80;;;1.00;;
57891;SDS011;43708;48.828;9.166;2023-02-22T01:00:22;0.98;;;0.82;;
57891;SDS011;43708;48.828;9.166;2023-02-22T01:02:51;1.85;;;1.00;;
57891;SDS011;43708;48.828;9.166;2023-02-22T01:05:19;1.05;;;0.82;;
57891;SDS011;43708;48.828;9.166;2023-02-22T01:07:47;1.00;;;0.80;;
57891;SDS011;43708;48.828;9.166;2023-02-22T01:10:13;1.00;;;0.77;;
57891;SDS011;43708;48.828;9.166;2023-02-22T01:12:40;1.20;;;0.90;;
57891;SDS011;43708;48.828;9.166;2023-02-22T01:15:06;1.10;;;1.00;;
57891;SDS011;43708;48.828;9.166;2023-02-22T01:17:35;1.02;;;0.82;;
57891;SDS011;43708;48.828;9.166;2023-02-22T01:20:02;1.30;;;0.98;;
57891;SDS011;43708;48.828;9.166;2023-02-22T01:22:39;1.42;;;0.88;;
57891;SDS011;43708;48.828;9.166;2023-02-22T01:25:06;1.08;;;0.77;;
57891;SDS011;43708;48.828;9.166;2023-02-22T01:27:33;1.40;;;0.80;;
57891;SDS011;43708;48.828;9.166;2023-02-22T01:30:00;1.58;;;0.90;;
57891;SDS011;43708;48.828;9.166;2023-02-22T01:32:26;0.93;;;0.90;;
57891;SDS011;43708;48.828;9.166;2023-02-22T01:34:52;1.30;;;0.80;;
57891;SDS011;43708;48.828;9.166;2023-02-22T01:37:18;0.88;;;0.80;;
57891;SDS011;43708;48.828;9.166;2023-02-22T01:39:44;0.70;;;0.70;;
57891;SDS011;43708;48.828;9.166;2023-02-22T01:42:09;1.33;;;0.85;;
57891;SDS011;43708;48.828;9.166;2023-02-22T01:44:35;1.33;;;0.73;;
57891;SDS011;43708;48.828;9.166;2023-02-22T01:47:04;1.08;;;0.88;;
57891;SDS011;43708;48.828;9.166;2023-02-22T01:49:35;0.70;;;0.70;;
57891;SDS011;43708;48.828;9.166;2023-02-22T01:52:13;0.80;;;0.80;;
57891;SDS011;43708;48.828;9.166;2023-02-22T01:54:42;1.00;;;0.90;;
57891;SDS011;43708;48.828;9.166;2023-02-22T01:57:20;0.73;;;0.60;;
57891;SDS011;43708;48.828;9.166;2023-02-22T01:59:52;0.77;;;0.60;;
57891;SDS011;43708;48.828;9.166;2023-02-22T02:02:22;0.77;;;0.75;;
57891;SDS011;43708;48.828;9.166;2023-02-22T02:04:49;1.15;;;0.77;;
57891;SDS011;43708;48.828;9.166;2023-02-22T02:07:18;0.70;;;0.68;;
57891;SDS011;43708;48.828;9.166;2023-02-22T02:10:03;0.63;;;0.63;;
57891;SDS011;43708;48.828;9.166;2023-02-22T02:12:32;0.65;;;0.60;;
57891;SDS011;43708;48.828;9.166;2023-02-22T02:17:53;0.98;;;0.70;;
57891;SDS011;43708;48.828;9.166;2023-02-22T02:20:32;0.80;;;0.80;;
57891;SDS011;43708;48.828;9.166;2023-02-22T02:26:28;0.73;;;0.50;;
57891;SDS011;43708;48.828;9.166;2023-02-22T02:35:20;0.70;;;0.60;;
57891;SDS011;43708;48.828;9.166;2023-02-22T02:44:13;0.60;;;0.55;;
57891;SDS011;43708;48.828;9.166;2023-02-22T02:46:58;0.60;;;0.50;;
57891;SDS011;43708;48.828;9.166;2023-02-22T02:49:38;0.73;;;0.60;;
57891;SDS011;43708;48.828;9.166;2023-02-22T02:52:11;0.60;;;0.50;;
57891;SDS011;43708;48.828;9.166;2023-02-22T02:54:37;0.50;;;0.50;;
57891;SDS011;43708;48.828;9.166;2023-02-22T02:57:04;0.80;;;0.73;;
57891;SDS011;43708;48.828;9.166;2023-02-22T02:59:34;0.60;;;0.60;;
57891;SDS011;43708;48.828;9.166;2023-02-22T03:10:13;0.70;;;0.55;;
57891;SDS011;43708;48.828;9.166;2023-02-22T03:15:48;0.60;;;0.60;;
57891;SDS011;43708;48.828;9.166;2023-02-22T03:18:28;0.80;;;0.70;;
57891;SDS011;43708;48.828;9.166;2023-02-22T03:21:28;0.70;;;0.70;;
57891;SDS011;43708;48.828;9.166;2023-02-22T03:25:02;0.82;;;0.63;;
57891;SDS011;43708;48.828;9.166;2023-02-22T03:27:03;1.10;;;0.80;;
57891;SDS011;43708;48.828;9.166;2023-02-22T03:29:37;1.05;;;0.90;;
57891;SDS011;43708;48.828;9.166;2023-02-22T03:32:08;0.73;;;0.70;;
57891;SDS011;43708;48.828;9.166;2023-02-22T03:34:41;0.65;;;0.65;;
57891;SDS011;43708;48.828;9.166;2023-02-22T03:37:13;0.77;;;0.65;;
57891;SDS011;43708;48.828;9.166;2023-02-22T03:39:43;0.90;;;0.73;;
57891;SDS011;43708;48.828;9.166;2023-02-22T03:42:13;0.60;;;0.60;;
57891;SDS011;43708;48.828;9.166;2023-02-22T03:44:43;0.90;;;0.90;;
57891;SDS011;43708;48.828;9.166;2023-02-22T03:47:12;1.42;;;0.73;;
57891;SDS011;43708;48.828;9.166;2023-02-22T03:50:03;0.80;;;0.80;;
57891;SDS011;43708;48.828;9.166;2023-02-22T03:52:32;0.55;;;0.52;;
57891;SDS011;43708;48.828;9.166;2023-02-22T03:54:59;0.95;;;0.85;;
57891;SDS011;43708;48.828;9.166;2023-02-22T03:57:26;0.93;;;0.80;;
57891;SDS011;43708;48.828;9.166;2023-02-22T03:59:56;0.93;;;0.77;;
57891;SDS011;43708;48.828;9.166;2023-02-22T04:02:22;0.52;;;0.52;;
57891;SDS011;43708;48.828;9.166;2023-02-22T04:04:47;0.70;;;0.60;;
57891;SDS011;43708;48.828;9.166;2023-02-22T04:07:13;0.93;;;0.80;;
57891;SDS011;43708;48.828;9.166;2023-02-22T04:09:39;0.73;;;0.73;;
57891;SDS011;43708;48.828;9.166;2023-02-22T04:12:05;0.80;;;0.63;;
57891;SDS011;43708;48.828;9.166;2023-02-22T04:14:31;0.60;;;0.52;;
57891;SDS011;43708;48.828;9.166;2023-02-22T04:16:56;0.63;;;0.60;;
57891;SDS011;43708;48.828;9.166;2023-02-22T04:19:22;0.55;;;0.55;;
57891;SDS011;43708;48.828;9.166;2023-02-22T04:21:48;0.68;;;0.68;;
57891;SDS011;43708;48.828;9.166;2023-02-22T04:24:13;0.80;;;0.65;;
57891;SDS011;43708;48.828;9.166;2023-02-22T04:26:39;0.70;;;0.70;;
57891;SDS011;43708;48.828;9.166;2023-02-22T04:29:05;1.15;;;0.73;;
57891;SDS011;43708;48.828;9.166;2023-02-22T04:31:31;0.60;;;0.60;;
57891;SDS011;43708;48.828;9.166;2023-02-22T04:33:57;0.95;;;0.63;;
57891;SDS011;43708;48.828;9.166;2023-02-22T04:36:24;0.63;;;0.63;;
57891;SDS011;43708;48.828;9.166;2023-02-22T04:38:51;1.05;;;0.70;;
57891;SDS011;43708;48.828;9.166;2023-02-22T04:41:17;0.73;;;0.73;;
57891;SDS011;43708;48.828;9.166;2023-02-22T04:43:43;0.70;;;0.70;;
57891;SDS011;43708;48.828;9.166;2023-02-22T04:46:08;0.60;;;0.60;;
57891;SDS011;43708;48.828;9.166;2023-02-22T04:48:34;0.60;;;0.60;;
57891;SDS011;43708;48.828;9.166;2023-02-22T04:51:00;0.50;;;0.50;;
57891;SDS011;43708;48.828;9.166;2023-02-22T04:53:25;0.57;;;0.57;;
57891;SDS011;43708;48.828;9.166;2023-02-22T04:55:51;0.60;;;0.47;;
57891;SDS011;43708;48.828;9.166;2023-02-22T04:58:17;0.57;;;0.50;;
57891;SDS011;43708;48.828;9.166;2023-02-22T05:00:42;0.52;;;0.52;;
57891;SDS011;43708;48.828;9.166;2023-02-22T05:03:08;0.65;;;0.50;;
57891;SDS011;43708;48.828;9.166;2023-02-22T05:05:33;0.57;;;0.57;;
57891;SDS011;43708;48.828;9.166;2023-02-22T05:07:59;0.65;;;0.60;;
57891;SDS011;43708;48.828;9.166;2023-02-22T05:10:25;0.80;;;0.70;;
57891;SDS011;43708;48.828;9.166;2023-02-22T05:12:50;0.65;;;0.50;;
57891;SDS011;43708;48.828;9.166;2023-02-22T05:15:17;0.80;;;0.80;;
57891;SDS011;43708;48.828;9.166;2023-02-22T05:17:44;0.77;;;0.68;;
57891;SDS011;43708;48.828;9.166;2023-02-22T05:20:31;0.90;;;0.63;;
57891;SDS011;43708;48.828;9.166;2023-02-22T05:22:58;0.52;;;0.52;;
57891;SDS011;43708;48.828;9.166;2023-02-22T05:25:25;1.15;;;0.80;;
57891;SDS011;43708;48.828;9.166;2023-02-22T05:27:56;0.65;;;0.60;;
57891;SDS011;43708;48.828;9.166;2023-02-22T05:30:24;0.60;;;0.60;;
57891;SDS011;43708;48.828;9.166;2023-02-22T05:32:52;0.60;;;0.60;;
57891;SDS011;43708;48.828;9.166;2023-02-22T05:35:18;0.90;;;0.60;;
57891;SDS011;43708;48.828;9.166;2023-02-22T05:37:45;0.60;;;0.60;;
57891;SDS011;43708;48.828;9.166;2023-02-22T05:40:11;1.52;;;0.52;;
57891;SDS011;43708;48.828;9.166;2023-02-22T05:42:38;0.70;;;0.50;;
57891;SDS011;43708;48.828;9.166;2023-02-22T05:45:04;0.60;;;0.60;;
57891;SDS011;43708;48.828;9.166;2023-02-22T05:47:30;0.70;;;0.60;;
57891;SDS011;43708;48.828;9.166;2023-02-22T05:49:56;0.80;;;0.70;;
57891;SDS011;43708;48.828;9.166;2023-02-22T05:52:21;1.30;;;0.70;;
57891;SDS011;43708;48.828;9.166;2023-02-22T05:54:47;1.30;;;0.90;;
57891;SDS011;43708;48.828;9.166;2023-02-22T05:57:12;0.68;;;0.60;;
57891;SDS011;43708;48.828;9.166;2023-02-22T05:59:38;0.70;;;0.70;;
57891;SDS011;43708;48.828;9.166;2023-02-22T06:02:04;0.70;;;0.70;;
57891;SDS011;43708;48.828;9.166;2023-02-22T06:04:29;0.60;;;0.60;;
57891;SDS011;43708;48.828;9.166;2023-02-22T06:06:55;0.55;;;0.52;;
57891;SDS011;43708;48.828;9.166;2023-02-22T06:09:20;0.75;;;0.70;;
57891;SDS011;43708;48.828;9.166;2023-02-22T06:11:46;0.73;;;0.65;;
57891;SDS011;43708;48.828;9.166;2023-02-22T06:14:11;0.80;;;0.75;;
57891;SDS011;43708;48.828;9.166;2023-02-22T06:16:37;1.00;;;0.65;;
57891;SDS011;43708;48.828;9.166;2023-02-22T06:19:02;0.57;;;0.57;;
57891;SDS011;43708;48.828;9.166;2023-02-22T06:21:28;0.60;;;0.60;;
57891;SDS011;43708;48.828;9.166;2023-02-22T06:23:54;0.60;;;0.60;;
57891;SDS011;43708;48.828;9.166;2023-02-22T06:26:21;0.50;;;0.50;;
57891;SDS011;43708;48.828;9.166;2023-02-22T06:28:47;0.60;;;0.60;;
57891;SDS011;43708;48.828;9.166;2023-02-22T06:31:13;1.08;;;0.70;;
57891;SDS011;43708;48.828;9.166;2023-02-22T06:33:39;0.70;;;0.70;;
57891;SDS011;43708;48.828;9.166;2023-02-22T06:36:04;0.75;;;0.70;;
57891;SDS011;43708;48.828;9.166;2023-02-22T06:38:31;1.65;;;0.50;;
57891;SDS011;43708;48.828;9.166;2023-02-22T06:40:57;0.60;;;0.60;;
57891;SDS011;43708;48.828;9.166;2023-02-22T06:43:23;0.73;;;0.60;;
57891;SDS011;43708;48.828;9.166;2023-02-22T06:45:49;0.52;;;0.52;;
57891;SDS011;43708;48.828;9.166;2023-02-22T06:48:15;0.60;;;0.60;;
57891;SDS011;43708;48.828;9.166;2023-02-22T06:50:42;0.60;;;0.60;;
57891;SDS011;43708;48.828;9.166;2023-02-22T06:53:08;0.60;;;0.60;;
57891;SDS011;43708;48.828;9.166;2023-02-22T06:55:34;0.70;;;0.60;;
57891;SDS011;43708;48.828;9.166;2023-02-22T06:58:00;0.85;;;0.52;;
57891;SDS011;43708;48.828;9.166;2023-02-22T07:00:27;0.68;;;0.65;;
57891;SDS011;43708;48.828;9.166;2023-02-22T07:02:56;0.70;;;0.60;;
57891;SDS011;43708;48.828;9.166;2023-02-22T07:05:23;1.10;;;0.80;;
57891;SDS011;43708;48.828;9.166;2023-02-22T07:07:51;1.30;;;0.70;;
57891;SDS011;43708;48.828;9.166;2023-02-22T07:10:20;0.60;;;0.60;;
57891;SDS011;43708;48.828;9.166;2023-02-22T07:12:47;1.02;;;0.80;;
57891;SDS011;43708;48.828;9.166;2023-02-22T07:15:13;1.27;;;1.17;;
57891;SDS011;43708;48.828;9.166;2023-02-22T07:17:42;1.23;;;1.13;;
57891;SDS011;43708;48.828;9.166;2023-02-22T07:20:08;1.00;;;0.90;;
57891;SDS011;43708;48.828;9.166;2023-02-22T07:22:35;1.17;;;1.08;;
57891;SDS011;43708;48.828;9.166;2023-02-22T07:25:02;2.92;;;0.80;;
57891;SDS011;43708;48.828;9.166;2023-02-22T07:27:29;1.42;;;0.90;;
57891;SDS011;43708;48.828;9.166;2023-02-22T07:29:55;1.63;;;0.70;;
57891;SDS011;43708;48.828;9.166;2023-02-22T07:32:20;1.35;;;0.68;;
57891;SDS011;43708;48.828;9.166;2023-02-22T07:34:46;0.70;;;0.70;;
57891;SDS011;43708;48.828;9.166;2023-02-22T07:37:12;0.82;;;0.75;;
57891;SDS011;43708;48.828;9.166;2023-02-22T07:39:37;0.82;;;0.75;;
57891;SDS011;43708;48.828;9.166;2023-02-22T07:42:06;1.63;;;0.90;;
57891;SDS011;43708;48.828;9.166;2023-02-22T07:44:31;2.10;;;1.05;;
57891;SDS011;43708;48.828;9.166;2023-02-22T07:46:57;0.98;;;0.80;;
57891;SDS011;43708;48.828;9.166;2023-02-22T07:49:23;0.85;;;0.80;;
57891;SDS011;43708;48.828;9.166;2023-02-22T07:51:48;1.05;;;0.95;;
57891;SDS011;43708;48.828;9.166;2023-02-22T07:54:14;0.70;;;0.70;;
57891;SDS011;43708;48.828;9.166;2023-02-22T07:56:43;0.90;;;0.77;;
57891;SDS011;43708;48.828;9.166;2023-02-22T07:59:10;1.05;;;0.95;;
57891;SDS011;43708;48.828;9.166;2023-02-22T08:01:36;1.05;;;0.95;;
57891;SDS011;43708;48.828;9.166;2023-02-22T08:04:01;1.38;;;0.90;;
57891;SDS011;43708;48.828;9.166;2023-02-22T08:06:27;1.45;;;1.08;;
57891;SDS011;43708;48.828;9.166;2023-02-22T08:08:54;1.20;;;1.00;;
57891;SDS011;43708;48.828;9.166;2023-02-22T08:11:20;1.27;;;0.90;;
57891;SDS011;43708;48.828;9.166;2023-02-22T08:13:46;1.08;;;0.80;;
57891;SDS011;43708;48.828;9.166;2023-02-22T08:16:11;1.00;;;0.80;;
57891;SDS011;43708;48.828;9.166;2023-02-22T08:22:01;1.15;;;0.85;;
57891;SDS011;43708;48.828;9.166;2023-02-22T08:24:26;0.70;;;0.70;;
57891;SDS011;43708;48.828;9.166;2023-02-22T08:26:52;0.70;;;0.70;;
57891;SDS011;43708;48.828;9.166;2023-02-22T08:29:18;1.10;;;1.00;;
57891;SDS011;43708;48.828;9.166;2023-02-22T08:31:48;1.48;;;0.88;;
57891;SDS011;43708;48.828;9.166;2023-02-22T08:34:15;1.85;;;0.80;;
57891;SDS011;43708;48.828;9.166;2023-02-22T08:36:41;1.65;;;1.08;;
57891;SDS011;43708;48.828;9.166;2023-02-22T08:39:07;1.17;;;0.80;;
57891;SDS011;43708;48.828;9.166;2023-02-22T08:41:33;2.00;;;0.93;;
57891;SDS011;43708;48.828;9.166;2023-02-22T08:43:58;1.00;;;0.90;;
57891;SDS011;43708;48.828;9.166;2023-02-22T08:46:26;1.42;;;0.80;;
57891;SDS011;43708;48.828;9.166;2023-02-22T08:48:52;0.98;;;0.90;;
57891;SDS011;43708;48.828;9.166;2023-02-22T08:51:17;1.13;;;1.02;;
57891;SDS011;43708;48.828;9.166;2023-02-22T08:53:43;1.15;;;1.00;;
57891;SDS011;43708;48.828;9.166;2023-02-22T08:56:09;2.35;;;1.05;;
57891;SDS011;43708;48.828;9.166;2023-02-22T08:58:35;0.70;;;0.70;;
57891;SDS011;43708;48.828;9.166;2023-02-22T09:01:01;1.45;;;1.35;;
57891;SDS011;43708;48.828;9.166;2023-02-22T09:03:27;1.48;;;1.20;;
57891;SDS011;43708;48.828;9.166;2023-02-22T09:05:52;0.93;;;0.80;;
57891;SDS011;43708;48.828;9.166;2023-02-22T09:08:18;2.17;;;1.10;;
57891;SDS011;43708;48.828;9.166;2023-02-22T09:10:45;1.02;;;1.02;;
57891;SDS011;43708;48.828;9.166;2023-02-22T09:13:11;2.05;;;1.13;;
57891;SDS011;43708;48.828;9.166;2023-02-22T09:15:37;1.15;;;1.05;;
57891;SDS011;43708;48.828;9.166;2023-02-22T09:18:05;1.40;;;1.20;;
57891;SDS011;43708;48.828;9.166;2023-02-22T09:20:34;1.20;;;1.10;;
57891;SDS011;43708;48.828;9.166;2023-02-22T09:23:03;1.30;;;1.20;;
57891;SDS011;43708;48.828;9.166;2023-02-22T09:25:29;1.33;;;1.00;;
57891;SDS011;43708;48.828;9.166;2023-02-22T09:27:56;1.17;;;0.85;;
57891;SDS011;43708;48.828;9.166;2023-02-22T09:30:29;1.08;;;1.00;;
57891;SDS011;43708;48.828;9.166;2023-02-22T09:33:01;1.63;;;1.20;;
57891;SDS011;43708;48.828;9.166;2023-02-22T09:35:29;1.20;;;1.10;;
57891;SDS011;43708;48.828;9.166;2023-02-22T09:37:56;1.42;;;1.17;;
57891;SDS011;43708;48.828;9.166;2023-02-22T09:40:29;1.20;;;1.10;;
57891;SDS011;43708;48.828;9.166;2023-02-22T09:46:08;1.00;;;0.90;;
57891;SDS011;43708;48.828;9.166;2023-02-22T09:48:45;1.17;;;1.08;;
57891;SDS011;43708;48.828;9.166;2023-02-22T09:51:16;1.25;;;1.08;;
57891;SDS011;43708;48.828;9.166;2023-02-22T09:53:44;1.10;;;1.05;;
57891;SDS011;43708;48.828;9.166;2023-02-22T09:56:14;1.10;;;1.00;;
57891;SDS011;43708;48.828;9.166;2023-02-22T09:58:45;2.15;;;1.10;;
57891;SDS011;43708;48.828;9.166;2023-02-22T10:04:16;1.27;;;1.02;;
57891;SDS011;43708;48.828;9.166;2023-02-22T10:09:20;1.10;;;1.00;;
57891;SDS011;43708;48.828;9.166;2023-02-22T10:11:51;0.95;;;0.90;;
57891;SDS011;43708;48.828;9.166;2023-02-22T10:14:33;1.33;;;1.10;;
57891;SDS011;43708;48.828;9.166;2023-02-22T10:17:32;1.83;;;1.30;;
57891;SDS011;43708;48.828;9.166;2023-02-22T10:20:14;1.40;;;1.05;;
57891;SDS011;43708;48.828;9.166;2023-02-22T10:25:33;1.58;;;1.45;;
57891;SDS011;43708;48.828;9.166;2023-02-22T10:28:12;1.20;;;1.10;;
57891;SDS011;43708;48.828;9.166;2023-02-22T10:30:52;1.45;;;1.05;;
57891;SDS011;43708;48.828;9.166;2023-02-22T10:33:27;1.20;;;1.10;;
57891;SDS011;43708;48.828;9.166;2023-02-22T10:35:57;1.50;;;1.40;;
57891;SDS011;43708;48.828;9.166;2023-02-22T10:38:27;1.95;;;1.10;;
57891;SDS011;43708;48.828;9.166;2023-02-22T10:40:57;1.33;;;1.23;;
57891;SDS011;43708;48.828;9.166;2023-02-22T10:43:43;1.27;;;1.17;;
57891;SDS011;43708;48.828;9.166;2023-02-22T10:46:15;1.67;;;1.58;;
57891;SDS011;43708;48.828;9.166;2023-02-22T10:48:46;1.15;;;1.00;;
57891;SDS011;43708;48.828;9.166;2023-02-22T10:51:15;1.25;;;1.13;;
57891;SDS011;43708;48.828;9.166;2023-02-22T10:53:41;1.40;;;1.30;;
57891;SDS011;43708;48.828;9.166;2023-02-22T10:56:15;1.67;;;1.40;;
57891;SDS011;43708;48.828;9.166;2023-02-22T10:58:46;1.85;;;1.48;;
57891;SDS011;43708;48.828;9.166;2023-02-22T11:01:36;1.50;;;1.25;;
57891;SDS011;43708;48.828;9.166;2023-02-22T11:04:11;1.25;;;1.15;;
57891;SDS011;43708;48.828;9.166;2023-02-22T11:06:41;1.60;;;1.50;;
57891;SDS011;43708;48.828;9.166;2023-02-22T11:09:20;2.45;;;1.60;;
57891;SDS011;43708;48.828;9.166;2023-02-22T11:11:47;1.45;;;1.30;;
57891;SDS011;43708;48.828;9.166;2023-02-22T11:14:29;2.35;;;1.50;;
57891;SDS011;43708;48.828;9.166;2023-02-22T11:16:55;1.58;;;1.20;;
57891;SDS011;43708;48.828;9.166;2023-02-22T11:19:29;1.92;;;1.42;;
57891;SDS011;43708;48.828;9.166;2023-02-22T11:21:58;2.03;;;1.33;;
57891;SDS011;43708;48.828;9.166;2023-02-22T11:24:42;1.50;;;1.35;;
57891;SDS011;43708;48.828;9.166;2023-02-22T11:27:24;1.30;;;1.20;;
57891;SDS011;43708;48.828;9.166;2023-02-22T11:29:52;1.60;;;1.38;;
57891;SDS011;43708;48.828;9.166;2023-02-22T11:32:42;1.85;;;1.40;;
57891;SDS011;43708;48.828;9.166;2023-02-22T11:37:53;1.65;;;1.52;;
57891;SDS011;43708;48.828;9.166;2023-02-22T11:43:38;1.00;;;1.00;;
57891;SDS011;43708;48.828;9.166;2023-02-22T11:46:06;1.30;;;1.20;;
57891;SDS011;43708;48.828;9.166;2023-02-22T11:48:38;1.48;;;1.10;;
57891;SDS011;43708;48.828;9.166;2023-02-22T11:51:15;2.30;;;1.25;;
57891;SDS011;43708;48.828;9.166;2023-02-22T11:56:33;1.23;;;1.13;;
57891;SDS011;43708;48.828;9.166;2023-02-22T12:01:48;1.65;;;1.23;;
57891;SDS011;43708;48.828;9.166;2023-02-22T12:04:35;1.08;;;0.98;;
57891;SDS011;43708;48.828;9.166;2023-02-22T12:07:16;1.10;;;1.00;;
57891;SDS011;43708;48.828;9.166;2023-02-22T12:12:56;1.30;;;1.20;;
57891;SDS011;43708;48.828;9.166;2023-02-22T12:15:45;1.30;;;1.20;;
57891;SDS011;43708;48.828;9.166;2023-02-22T12:18:23;1.30;;;1.20;;
57891;SDS011;43708;48.828;9.166;2023-02-22T12:20:58;1.73;;;1.35;;
57891;SDS011;43708;48.828;9.166;2023-02-22T12:26:15;1.35;;;1.20;;
57891;SDS011;43708;48.828;9.166;2023-02-22T12:28:50;2.13;;;1.30;;
57891;SDS011;43708;48.828;9.166;2023-02-22T12:31:37;1.33;;;1.23;;
57891;SDS011;43708;48.828;9.166;2023-02-22T12:34:19;1.27;;;1.05;;
57891;SDS011;43708;48.828;9.166;2023-02-22T12:37:09;1.60;;;1.50;;
57891;SDS011;43708;48.828;9.166;2023-02-22T12:42:23;1.35;;;1.15;;
57891;SDS011;43708;48.828;9.166;2023-02-22T12:45:04;1.30;;;1.10;;
57891;SDS011;43708;48.828;9.166;2023-02-22T12:47:42;5.82;;;1.00;;
57891;SDS011;43708;48.828;9.166;2023-02-22T12:50:21;1.25;;;1.15;;
57891;SDS011;43708;48.828;9.166;2023-02-22T12:52:56;1.52;;;1.30;;
57891;SDS011;43708;48.828;9.166;2023-02-22T12:55:33;1.20;;;1.10;;
57891;SDS011;43708;48.828;9.166;2023-02-22T12:58:06;1.77;;;1.50;;
57891;SDS011;43708;48.828;9.166;2023-02-22T13:00:43;1.90;;;1.42;;
57891;SDS011;43708;48.828;9.166;2023-02-22T13:06:00;1.23;;;1.13;;
57891;SDS011;43708;48.828;9.166;2023-02-22T13:08:31;1.90;;;1.20;;
57891;SDS011;43708;48.828;9.166;2023-02-22T13:13:44;1.45;;;1.20;;
57891;SDS011;43708;48.828;9.166;2023-02-22T13:16:31;1.35;;;0.93;;
57891;SDS011;43708;48.828;9.166;2023-02-22T13:19:07;1.80;;;1.20;;
57891;SDS011;43708;48.828;9.166;2023-02-22T13:29:41;2.45;;;1.13;;
57891;SDS011;43708;48.828;9.166;2023-02-22T13:37:48;1.40;;;1.30;;
57891;SDS011;43708;48.828;9.166;2023-02-22T13:40:56;1.90;;;1.38;;
57891;SDS011;43708;48.828;9.166;2023-02-22T13:51:46;1.40;;;1.30;;
57891;SDS011;43708;48.828;9.166;2023-02-22T13:54:15;2.90;;;1.38;;
57891;SDS011;43708;48.828;9.166;2023-02-22T13:56:49;1.50;;;1.25;;
57891;SDS011;43708;48.828;9.166;2023-02-22T13:59:24;3.60;;;1.20;;
57891;SDS011;43708;48.828;9.166;2023-02-22T14:01:55;1.00;;;0.90;;
57891;SDS011;43708;48.828;9.166;2023-02-22T14:04:32;1.77;;;1.30;;
57891;SDS011;43708;48.828;9.166;2023-02-22T14:07:44;2.45;;;1.40;;
57891;SDS011;43708;48.828;9.166;2023-02-22T14:09:50;1.60;;;1.23;;
57891;SDS011;43708;48.828;9.166;2023-02-22T14:20:27;1.98;;;1.20;;
57891;SDS011;43708;48.828;9.166;2023-02-22T14:25:47;3.50;;;1.40;;
57891;SDS011;43708;48.828;9.166;2023-02-22T14:31:08;1.48;;;1.38;;
57891;SDS011;43708;48.828;9.166;2023-02-22T14:36:55;1.45;;;1.30;;
57891;SDS011;43708;48.828;9.166;2023-02-22T14:39:38;1.35;;;1.02;;
57891;SDS011;43708;48.828;9.166;2023-02-22T14:42:27;1.60;;;1.10;;
57891;SDS011;43708;48.828;9.166;2023-02-22T14:47:37;1.90;;;1.25;;
57891;SDS011;43708;48.828;9.166;2023-02-22T14:50:15;1.15;;;1.05;;
57891;SDS011;43708;48.828;9.166;2023-02-22T14:52:56;1.33;;;1.02;;
57891;SDS011;43708;48.828;9.166;2023-02-22T14:55:31;2.15;;;1.40;;
57891;SDS011;43708;48.828;9.166;2023-02-22T14:58:20;2.08;;;1.35;;
57891;SDS011;43708;48.828;9.166;2023-02-22T15:00:53;1.75;;;1.38;;
57891;SDS011;43708;48.828;9.166;2023-02-22T15:05:46;1.90;;;1.48;;
57891;SDS011;43708;48.828;9.166;2023-02-22T15:08:13;2.13;;;1.73;;
57891;SDS011;43708;48.828;9.166;2023-02-22T15:10:45;2.28;;;1.40;;
57891;SDS011;43708;48.828;9.166;2023-02-22T15:13:14;3.03;;;1.85;;
57891;SDS011;43708;48.828;9.166;2023-02-22T15:15:43;3.05;;;1.63;;
57891;SDS011;43708;48.828;9.166;2023-02-22T15:18:15;2.35;;;1.60;;
57891;SDS011;43708;48.828;9.166;2023-02-22T15:20:55;1.33;;;1.17;;
57891;SDS011;43708;48.828;9.166;2023-02-22T15:23:27;2.20;;;1.45;;
57891;SDS011;43708;48.828;9.166;2023-02-22T15:26:02;2.47;;;1.23;;
57891;SDS011;43708;48.828;9.166;2023-02-22T15:28:29;2.40;;;1.40;;
57891;SDS011;43708;48.828;9.166;2023-02-22T15:33:40;3.17;;;1.45;;
57891;SDS011;43708;48.828;9.166;2023-02-22T15:36:12;2.10;;;1.55;;
57891;SDS011;43708;48.828;9.166;2023-02-22T15:38:40;1.05;;;0.95;;
57891;SDS011;43708;48.828;9.166;2023-02-22T15:41:18;1.52;;;1.08;;
57891;SDS011;43708;48.828;9.166;2023-02-22T15:46:30;1.95;;;1.48;;
57891;SDS011;43708;48.828;9.166;2023-02-22T15:51:35;1.38;;;1.13;;
57891;SDS011;43708;48.828;9.166;2023-02-22T15:54:04;1.27;;;1.00;;
57891;SDS011;43708;48.828;9.166;2023-02-22T15:56:33;3.35;;;1.40;;
57891;SDS011;43708;48.828;9.166;2023-02-22T15:59:21;1.20;;;1.02;;
57891;SDS011;43708;48.828;9.166;2023-02-22T16:01:48;1.75;;;1.27;;
57891;SDS011;43708;48.828;9.166;2023-02-22T16:04:20;1.17;;;1.08;;
57891;SDS011;43708;48.828;9.166;2023-02-22T16:06:47;1.33;;;1.23;;
57891;SDS011;43708;48.828;9.166;2023-02-22T16:09:15;2.08;;;1.30;;
57891;SDS011;43708;48.828;9.166;2023-02-22T16:11:46;1.30;;;1.17;;
57891;SDS011;43708;48.828;9.166;2023-02-22T16:14:23;7.45;;;5.55;;
57891;SDS011;43708;48.828;9.166;2023-02-22T16:17:09;12.93;;;10.85;;
57891;SDS011;43708;48.828;9.166;2023-02-22T16:19:49;19.77;;;16.35;;
57891;SDS011;43708;48.828;9.166;2023-02-22T16:22:24;20.08;;;16.55;;
57891;SDS011;43708;48.828;9.166;2023-02-22T16:30:21;16.95;;;14.32;;
57891;SDS011;43708;48.828;9.166;2023-02-22T16:32:49;18.70;;;15.55;;
57891;SDS011;43708;48.828;9.166;2023-02-22T16:35:15;16.75;;;13.68;;
57891;SDS011;43708;48.828;9.166;2023-02-22T16:37:45;14.30;;;12.75;;
57891;SDS011;43708;48.828;9.166;2023-02-22T16:40:20;14.45;;;11.82;;
57891;SDS011;43708;48.828;9.166;2023-02-22T16:42:48;15.85;;;12.52;;
57891;SDS011;43708;48.828;9.166;2023-02-22T16:45:16;13.35;;;11.18;;
57891;SDS011;43708;48.828;9.166;2023-02-22T16:47:43;9.77;;;8.65;;
57891;SDS011;43708;48.828;9.166;2023-02-22T16:50:10;9.88;;;8.65;;
57891;SDS011;43708;48.828;9.166;2023-02-22T16:52:39;10.15;;;8.25;;
57891;SDS011;43708;48.828;9.166;2023-02-22T16:55:07;8.25;;;7.45;;
57891;SDS011;43708;48.828;9.166;2023-02-22T16:57:35;7.55;;;6.45;;
57891;SDS011;43708;48.828;9.166;2023-02-22T17:00:03;7.00;;;6.30;;
57891;SDS011;43708;48.828;9.166;2023-02-22T17:02:36;5.82;;;4.93;;
57891;SDS011;43708;48.828;9.166;2023-02-22T17:05:05;6.10;;;5.18;;
57891;SDS011;43708;48.828;9.166;2023-02-22T17:07:36;5.07;;;4.32;;
57891;SDS011;43708;48.828;9.166;2023-02-22T17:10:04;5.45;;;4.50;;
57891;SDS011;43708;48.828;9.166;2023-02-22T17:12:30;4.65;;;4.18;;
57891;SDS011;43708;48.828;9.166;2023-02-22T17:14:56;6.47;;;5.50;;